sensor_id;sensor_type;location;lat;lon;timestamp;P1;durP1;ratioP1;P2;durP2;ratioP2
10132;SDS011;5106;50.926;7.080;2022-10-16T00:00:30;6.25;;;2.53;;
10132;SDS011;5106;50.926;7.080;2022-10-16T00:02:56;3.83;;;2.30;;
10132;SDS011;5106;50.926;7.080;2022-10-16T00:05:22;3.17;;;2.30;;
10132;SDS011;5106;50.926;7.080;2022-10-16T00:07:47;3.58;;;2.13;;
10132;SDS011;5106;50.926;7.080;2022-10-16T00:10:13;5.72;;;2.10;;
10132;SDS011;5106;50.926;7.080;2022-10-16T00:12:38;5.05;;;2.40;;
10132;SDS011;5106;50.926;7.080;2022-10-16T00:15:04;2.22;;;1.85;;
10132;SDS011;5106;50.926;7.080;2022-10-16T00:17:31;6.68;;;2.60;;
10132;SDS011;5106;50.926;7.080;2022-10-16T00:19:57;4.43;;;2.00;;
10132;SDS011;5106;50.926;7.080;2022-10-16T00:22:22;3.88;;;2.15;;
10132;SDS011;5106;50.926;7.080;2022-10-16T00:24:48;7.07;;;2.20;;
10132;SDS011;5106;50.926;7.080;2022-10-16T00:27:14;4.00;;;2.35;;
10132;SDS011;5106;50.926;7.080;2022-10-16T00:29:40;3.60;;;2.20;;
10132;SDS011;5106;50.926;7.080;2022-10-16T00:32:05;3.00;;;2.10;;
10132;SDS011;5106;50.926;7.080;2022-10-16T00:34:31;4.70;;;2.13;;
10132;SDS011;5106;50.926;7.080;2022-10-16T00:36:56;5.72;;;2.25;;
10132;SDS011;5106;50.926;7.080;2022-10-16T00:39:22;7.43;;;2.30;;
10132;SDS011;5106;50.926;7.080;2022-10-16T00:41:48;4.80;;;2.15;;
10132;SDS011;5106;50.926;7.080;2022-10-16T00:49:50;4.18;;;2.03;;
10132;SDS011;5106;50.926;7.080;2022-10-16T00:52:18;5.18;;;2.05;;
10132;SDS011;5106;50.926;7.080;2022-10-16T00:54:44;4.47;;;2.08;;
10132;SDS011;5106;50.926;7.080;2022-10-16T00:57:12;3.50;;;2.25;;
10132;SDS011;5106;50.926;7.080;2022-10-16T00:59:39;4.63;;;1.90;;
10132;SDS011;5106;50.926;7.080;2022-10-16T01:02:07;4.38;;;1.92;;
10132;SDS011;5106;50.926;7.080;2022-10-16T01:04:50;5.53;;;1.80;;
10132;SDS011;5106;50.926;7.080;2022-10-16T01:07:20;2.80;;;1.85;;
10132;SDS011;5106;50.926;7.080;2022-10-16T01:10:05;3.75;;;2.00;;
10132;SDS011;5106;50.926;7.080;2022-10-16T01:12:46;2.78;;;1.65;;
10132;SDS011;5106;50.926;7.080;2022-10-16T01:18:43;5.53;;;2.10;;
10132;SDS011;5106;50.926;7.080;2022-10-16T01:21:29;3.58;;;2.20;;
10132;SDS011;5106;50.926;7.080;2022-10-16T01:26:43;4.68;;;1.80;;
10132;SDS011;5106;50.926;7.080;2022-10-16T01:31:44;2.72;;;1.73;;
10132;SDS011;5106;50.926;7.080;2022-10-16T01:34:16;2.42;;;1.50;;
10132;SDS011;5106;50.926;7.080;2022-10-16T01:36:48;3.38;;;1.52;;
10132;SDS011;5106;50.926;7.080;2022-10-16T01:39:22;3.20;;;1.73;;
10132;SDS011;5106;50.926;7.080;2022-10-16T01:41:54;5.93;;;1.70;;
10132;SDS011;5106;50.926;7.080;2022-10-16T01:44:28;4.20;;;1.30;;
10132;SDS011;5106;50.926;7.080;2022-10-16T01:46:55;6.05;;;1.98;;
10132;SDS011;5106;50.926;7.080;2022-10-16T01:49:23;6.40;;;1.80;;
10132;SDS011;5106;50.926;7.080;2022-10-16T01:51:54;6.00;;;1.88;;
10132;SDS011;5106;50.926;7.080;2022-10-16T01:54:25;4.60;;;1.38;;
10132;SDS011;5106;50.926;7.080;2022-10-16T01:56:53;4.78;;;1.67;;
10132;SDS011;5106;50.926;7.080;2022-10-16T01:59:21;7.05;;;1.73;;
10132;SDS011;5106;50.926;7.080;2022-10-16T02:01:52;4.07;;;1.52;;
10132;SDS011;5106;50.926;7.080;2022-10-16T02:04:27;4.22;;;1.48;;
10132;SDS011;5106;50.926;7.080;2022-10-16T02:06:56;6.82;;;1.50;;
10132;SDS011;5106;50.926;7.080;2022-10-16T02:09:22;2.55;;;1.33;;
10132;SDS011;5106;50.926;7.080;2022-10-16T02:11:48;6.82;;;1.50;;
10132;SDS011;5106;50.926;7.080;2022-10-16T02:14:15;3.10;;;1.10;;
10132;SDS011;5106;50.926;7.080;2022-10-16T02:16:42;3.83;;;1.27;;
10132;SDS011;5106;50.926;7.080;2022-10-16T02:19:10;7.80;;;1.77;;
10132;SDS011;5106;50.926;7.080;2022-10-16T02:21:51;5.45;;;1.70;;
10132;SDS011;5106;50.926;7.080;2022-10-16T02:24:31;7.10;;;1.45;;
10132;SDS011;5106;50.926;7.080;2022-10-16T02:27:05;4.65;;;1.80;;
10132;SDS011;5106;50.926;7.080;2022-10-16T02:29:36;3.60;;;1.65;;
10132;SDS011;5106;50.926;7.080;2022-10-16T02:32:10;2.25;;;1.38;;
10132;SDS011;5106;50.926;7.080;2022-10-16T02:34:39;3.20;;;1.67;;
10132;SDS011;5106;50.926;7.080;2022-10-16T02:37:06;4.63;;;1.73;;
10132;SDS011;5106;50.926;7.080;2022-10-16T02:39:32;3.83;;;1.88;;
10132;SDS011;5106;50.926;7.080;2022-10-16T02:41:58;4.90;;;1.80;;
10132;SDS011;5106;50.926;7.080;2022-10-16T02:44:24;4.13;;;1.80;;
10132;SDS011;5106;50.926;7.080;2022-10-16T02:46:50;7.63;;;1.80;;
10132;SDS011;5106;50.926;7.080;2022-10-16T02:49:15;3.05;;;1.55;;
10132;SDS011;5106;50.926;7.080;2022-10-16T02:51:41;6.68;;;1.60;;
10132;SDS011;5106;50.926;7.080;2022-10-16T02:54:06;7.72;;;1.65;;
10132;SDS011;5106;50.926;7.080;2022-10-16T02:56:32;2.50;;;1.58;;
10132;SDS011;5106;50.926;7.080;2022-10-16T02:58:58;6.07;;;1.77;;
10132;SDS011;5106;50.926;7.080;2022-10-16T03:01:23;4.13;;;1.65;;
10132;SDS011;5106;50.926;7.080;2022-10-16T03:03:49;3.53;;;1.77;;
10132;SDS011;5106;50.926;7.080;2022-10-16T03:06:15;4.10;;;1.50;;
10132;SDS011;5106;50.926;7.080;2022-10-16T03:08:41;2.30;;;1.40;;
10132;SDS011;5106;50.926;7.080;2022-10-16T03:11:06;6.28;;;1.63;;
10132;SDS011;5106;50.926;7.080;2022-10-16T03:13:32;5.15;;;1.63;;
10132;SDS011;5106;50.926;7.080;2022-10-16T03:15:58;1.92;;;1.80;;
10132;SDS011;5106;50.926;7.080;2022-10-16T03:18:23;3.78;;;1.60;;
10132;SDS011;5106;50.926;7.080;2022-10-16T03:20:49;4.90;;;1.75;;
10132;SDS011;5106;50.926;7.080;2022-10-16T03:23:14;3.28;;;1.70;;
10132;SDS011;5106;50.926;7.080;2022-10-16T03:25:40;2.28;;;1.77;;
10132;SDS011;5106;50.926;7.080;2022-10-16T03:28:05;2.85;;;1.85;;
10132;SDS011;5106;50.926;7.080;2022-10-16T03:30:31;2.65;;;1.55;;
10132;SDS011;5106;50.926;7.080;2022-10-16T03:32:57;3.17;;;2.03;;
10132;SDS011;5106;50.926;7.080;2022-10-16T03:35:23;4.47;;;1.60;;
10132;SDS011;5106;50.926;7.080;2022-10-16T03:37:49;2.97;;;1.63;;
10132;SDS011;5106;50.926;7.080;2022-10-16T03:40:16;3.25;;;1.63;;
10132;SDS011;5106;50.926;7.080;2022-10-16T03:42:42;4.32;;;1.70;;
10132;SDS011;5106;50.926;7.080;2022-10-16T03:45:08;5.40;;;1.80;;
10132;SDS011;5106;50.926;7.080;2022-10-16T03:47:34;3.58;;;1.60;;
10132;SDS011;5106;50.926;7.080;2022-10-16T03:50:00;3.15;;;1.70;;
10132;SDS011;5106;50.926;7.080;2022-10-16T03:52:26;5.13;;;1.80;;
10132;SDS011;5106;50.926;7.080;2022-10-16T03:54:52;2.58;;;1.58;;
10132;SDS011;5106;50.926;7.080;2022-10-16T03:57:17;4.65;;;1.95;;
10132;SDS011;5106;50.926;7.080;2022-10-16T03:59:43;3.22;;;1.85;;
10132;SDS011;5106;50.926;7.080;2022-10-16T04:02:09;2.45;;;1.77;;
10132;SDS011;5106;50.926;7.080;2022-10-16T04:04:34;3.13;;;1.85;;
10132;SDS011;5106;50.926;7.080;2022-10-16T04:07:00;5.70;;;1.65;;
10132;SDS011;5106;50.926;7.080;2022-10-16T04:09:26;3.92;;;1.67;;
10132;SDS011;5106;50.926;7.080;2022-10-16T04:11:52;2.55;;;1.80;;
10132;SDS011;5106;50.926;7.080;2022-10-16T04:14:17;2.30;;;1.40;;
10132;SDS011;5106;50.926;7.080;2022-10-16T04:16:43;4.47;;;1.80;;
10132;SDS011;5106;50.926;7.080;2022-10-16T04:19:09;5.43;;;1.50;;
10132;SDS011;5106;50.926;7.080;2022-10-16T04:21:35;3.63;;;1.70;;
10132;SDS011;5106;50.926;7.080;2022-10-16T04:24:01;2.80;;;1.50;;
10132;SDS011;5106;50.926;7.080;2022-10-16T04:26:27;3.15;;;1.70;;
10132;SDS011;5106;50.926;7.080;2022-10-16T04:28:53;4.28;;;1.73;;
10132;SDS011;5106;50.926;7.080;2022-10-16T04:31:19;6.45;;;1.63;;
10132;SDS011;5106;50.926;7.080;2022-10-16T04:33:45;6.45;;;1.63;;
10132;SDS011;5106;50.926;7.080;2022-10-16T04:36:10;10.10;;;2.47;;
10132;SDS011;5106;50.926;7.080;2022-10-16T04:38:36;2.90;;;1.63;;
10132;SDS011;5106;50.926;7.080;2022-10-16T04:41:02;1.67;;;1.50;;
10132;SDS011;5106;50.926;7.080;2022-10-16T04:43:28;2.08;;;1.63;;
10132;SDS011;5106;50.926;7.080;2022-10-16T04:45:54;4.22;;;1.90;;
10132;SDS011;5106;50.926;7.080;2022-10-16T04:48:21;4.28;;;1.60;;
10132;SDS011;5106;50.926;7.080;2022-10-16T04:50:47;7.53;;;1.80;;
10132;SDS011;5106;50.926;7.080;2022-10-16T04:53:12;3.15;;;1.48;;
10132;SDS011;5106;50.926;7.080;2022-10-16T04:55:38;1.83;;;1.70;;
10132;SDS011;5106;50.926;7.080;2022-10-16T04:58:04;5.88;;;1.60;;
10132;SDS011;5106;50.926;7.080;2022-10-16T05:00:30;8.02;;;1.67;;
10132;SDS011;5106;50.926;7.080;2022-10-16T05:02:56;6.88;;;1.52;;
10132;SDS011;5106;50.926;7.080;2022-10-16T05:05:24;4.07;;;1.58;;
10132;SDS011;5106;50.926;7.080;2022-10-16T05:07:50;2.15;;;1.40;;
10132;SDS011;5106;50.926;7.080;2022-10-16T05:10:15;3.85;;;1.67;;
10132;SDS011;5106;50.926;7.080;2022-10-16T05:12:42;4.97;;;1.50;;
10132;SDS011;5106;50.926;7.080;2022-10-16T05:15:07;6.20;;;1.80;;
10132;SDS011;5106;50.926;7.080;2022-10-16T05:17:33;4.63;;;1.70;;
10132;SDS011;5106;50.926;7.080;2022-10-16T05:19:59;2.80;;;1.30;;
10132;SDS011;5106;50.926;7.080;2022-10-16T05:22:24;2.17;;;1.35;;
10132;SDS011;5106;50.926;7.080;2022-10-16T05:24:50;1.67;;;1.13;;
10132;SDS011;5106;50.926;7.080;2022-10-16T05:27:16;2.42;;;1.20;;
10132;SDS011;5106;50.926;7.080;2022-10-16T05:29:47;3.33;;;1.58;;
10132;SDS011;5106;50.926;7.080;2022-10-16T05:32:14;1.40;;;1.30;;
10132;SDS011;5106;50.926;7.080;2022-10-16T05:34:40;2.45;;;1.20;;
10132;SDS011;5106;50.926;7.080;2022-10-16T05:37:06;3.35;;;1.38;;
10132;SDS011;5106;50.926;7.080;2022-10-16T05:39:32;1.30;;;1.10;;
10132;SDS011;5106;50.926;7.080;2022-10-16T05:41:57;4.47;;;1.17;;
10132;SDS011;5106;50.926;7.080;2022-10-16T05:44:23;3.33;;;1.30;;
10132;SDS011;5106;50.926;7.080;2022-10-16T05:46:49;4.60;;;1.40;;
10132;SDS011;5106;50.926;7.080;2022-10-16T05:49:14;4.90;;;1.23;;
10132;SDS011;5106;50.926;7.080;2022-10-16T05:51:40;4.00;;;1.33;;
10132;SDS011;5106;50.926;7.080;2022-10-16T05:54:06;2.75;;;1.13;;
10132;SDS011;5106;50.926;7.080;2022-10-16T05:56:32;4.00;;;1.20;;
10132;SDS011;5106;50.926;7.080;2022-10-16T05:58:57;1.90;;;1.30;;
10132;SDS011;5106;50.926;7.080;2022-10-16T06:01:23;1.30;;;1.02;;
10132;SDS011;5106;50.926;7.080;2022-10-16T06:03:50;3.08;;;1.20;;
10132;SDS011;5106;50.926;7.080;2022-10-16T06:06:21;3.70;;;1.40;;
10132;SDS011;5106;50.926;7.080;2022-10-16T06:08:49;1.40;;;1.27;;
10132;SDS011;5106;50.926;7.080;2022-10-16T06:11:19;4.30;;;1.25;;
10132;SDS011;5106;50.926;7.080;2022-10-16T06:13:50;3.80;;;1.40;;
10132;SDS011;5106;50.926;7.080;2022-10-16T06:16:17;4.35;;;1.52;;
10132;SDS011;5106;50.926;7.080;2022-10-16T06:18:42;2.58;;;1.02;;
10132;SDS011;5106;50.926;7.080;2022-10-16T06:21:16;1.20;;;1.00;;
10132;SDS011;5106;50.926;7.080;2022-10-16T06:23:43;1.80;;;1.20;;
10132;SDS011;5106;50.926;7.080;2022-10-16T06:26:11;3.95;;;1.20;;
10132;SDS011;5106;50.926;7.080;2022-10-16T06:28:39;5.65;;;1.30;;
10132;SDS011;5106;50.926;7.080;2022-10-16T06:31:05;1.65;;;1.20;;
10132;SDS011;5106;50.926;7.080;2022-10-16T06:33:32;2.47;;;1.50;;
10132;SDS011;5106;50.926;7.080;2022-10-16T06:36:02;6.43;;;1.80;;
10132;SDS011;5106;50.926;7.080;2022-10-16T06:38:29;4.35;;;1.63;;
10132;SDS011;5106;50.926;7.080;2022-10-16T06:40:55;5.28;;;1.50;;
10132;SDS011;5106;50.926;7.080;2022-10-16T06:43:21;4.70;;;1.38;;
10132;SDS011;5106;50.926;7.080;2022-10-16T06:45:53;3.40;;;1.85;;
10132;SDS011;5106;50.926;7.080;2022-10-16T06:48:20;4.88;;;1.67;;
10132;SDS011;5106;50.926;7.080;2022-10-16T06:51:00;2.78;;;1.50;;
10132;SDS011;5106;50.926;7.080;2022-10-16T06:53:31;4.13;;;1.42;;
10132;SDS011;5106;50.926;7.080;2022-10-16T06:56:21;2.75;;;1.67;;
10132;SDS011;5106;50.926;7.080;2022-10-16T06:58:47;2.78;;;1.50;;
10132;SDS011;5106;50.926;7.080;2022-10-16T07:01:13;2.03;;;1.60;;
10132;SDS011;5106;50.926;7.080;2022-10-16T07:03:40;2.40;;;1.70;;
10132;SDS011;5106;50.926;7.080;2022-10-16T07:06:08;2.58;;;1.90;;
10132;SDS011;5106;50.926;7.080;2022-10-16T07:08:36;4.70;;;2.03;;
10132;SDS011;5106;50.926;7.080;2022-10-16T07:11:07;3.63;;;1.70;;
10132;SDS011;5106;50.926;7.080;2022-10-16T07:13:37;4.50;;;2.10;;
10132;SDS011;5106;50.926;7.080;2022-10-16T07:16:05;4.72;;;2.13;;
10132;SDS011;5106;50.926;7.080;2022-10-16T07:18:36;2.33;;;1.80;;
10132;SDS011;5106;50.926;7.080;2022-10-16T07:21:07;2.40;;;2.20;;
10132;SDS011;5106;50.926;7.080;2022-10-16T07:23:35;4.20;;;2.17;;
10132;SDS011;5106;50.926;7.080;2022-10-16T07:26:01;2.03;;;1.83;;
10132;SDS011;5106;50.926;7.080;2022-10-16T07:28:27;2.08;;;1.85;;
10132;SDS011;5106;50.926;7.080;2022-10-16T07:30:53;2.65;;;1.75;;
10132;SDS011;5106;50.926;7.080;2022-10-16T07:33:19;3.85;;;2.33;;
10132;SDS011;5106;50.926;7.080;2022-10-16T07:35:49;2.28;;;2.08;;
10132;SDS011;5106;50.926;7.080;2022-10-16T07:38:19;2.60;;;2.20;;
10132;SDS011;5106;50.926;7.080;2022-10-16T07:40:46;3.03;;;2.03;;
10132;SDS011;5106;50.926;7.080;2022-10-16T07:43:12;2.13;;;1.88;;
10132;SDS011;5106;50.926;7.080;2022-10-16T07:45:40;3.33;;;2.00;;
10132;SDS011;5106;50.926;7.080;2022-10-16T07:48:14;5.45;;;2.00;;
10132;SDS011;5106;50.926;7.080;2022-10-16T07:50:41;2.83;;;1.90;;
10132;SDS011;5106;50.926;7.080;2022-10-16T07:53:06;2.72;;;2.00;;
10132;SDS011;5106;50.926;7.080;2022-10-16T07:55:32;2.80;;;2.08;;
10132;SDS011;5106;50.926;7.080;2022-10-16T07:57:58;2.45;;;2.22;;
10132;SDS011;5106;50.926;7.080;2022-10-16T08:00:23;4.18;;;3.03;;
10132;SDS011;5106;50.926;7.080;2022-10-16T08:02:49;4.47;;;3.13;;
10132;SDS011;5106;50.926;7.080;2022-10-16T08:05:15;4.82;;;3.08;;
10132;SDS011;5106;50.926;7.080;2022-10-16T08:07:40;5.85;;;2.78;;
10132;SDS011;5106;50.926;7.080;2022-10-16T08:10:06;3.75;;;3.00;;
10132;SDS011;5106;50.926;7.080;2022-10-16T08:12:36;3.65;;;2.70;;
10132;SDS011;5106;50.926;7.080;2022-10-16T08:15:01;3.17;;;2.20;;
10132;SDS011;5106;50.926;7.080;2022-10-16T08:17:27;4.22;;;2.65;;
10132;SDS011;5106;50.926;7.080;2022-10-16T08:19:52;3.97;;;2.42;;
10132;SDS011;5106;50.926;7.080;2022-10-16T08:22:18;2.97;;;2.13;;
10132;SDS011;5106;50.926;7.080;2022-10-16T08:24:43;5.50;;;1.95;;
10132;SDS011;5106;50.926;7.080;2022-10-16T08:27:09;3.03;;;2.03;;
10132;SDS011;5106;50.926;7.080;2022-10-16T08:29:35;2.78;;;1.70;;
10132;SDS011;5106;50.926;7.080;2022-10-16T08:32:00;4.55;;;2.10;;
10132;SDS011;5106;50.926;7.080;2022-10-16T08:34:26;2.58;;;1.92;;
10132;SDS011;5106;50.926;7.080;2022-10-16T08:36:54;2.20;;;2.00;;
10132;SDS011;5106;50.926;7.080;2022-10-16T08:39:20;2.25;;;1.80;;
10132;SDS011;5106;50.926;7.080;2022-10-16T08:47:13;2.15;;;1.75;;
10132;SDS011;5106;50.926;7.080;2022-10-16T08:49:40;2.05;;;1.85;;
10132;SDS011;5106;50.926;7.080;2022-10-16T08:52:12;4.78;;;2.00;;
10132;SDS011;5106;50.926;7.080;2022-10-16T08:54:41;2.53;;;1.55;;
10132;SDS011;5106;50.926;7.080;2022-10-16T08:57:11;2.13;;;1.55;;
10132;SDS011;5106;50.926;7.080;2022-10-16T08:59:39;4.18;;;1.30;;
10132;SDS011;5106;50.926;7.080;2022-10-16T09:07:43;2.03;;;1.20;;
10132;SDS011;5106;50.926;7.080;2022-10-16T09:15:49;1.30;;;1.20;;
10132;SDS011;5106;50.926;7.080;2022-10-16T09:18:39;1.00;;;0.90;;
10132;SDS011;5106;50.926;7.080;2022-10-16T09:21:32;3.17;;;1.10;;
10132;SDS011;5106;50.926;7.080;2022-10-16T09:24:11;2.28;;;1.23;;
10132;SDS011;5106;50.926;7.080;2022-10-16T09:26:42;0.90;;;0.80;;
10132;SDS011;5106;50.926;7.080;2022-10-16T09:29:11;1.63;;;1.10;;
10132;SDS011;5106;50.926;7.080;2022-10-16T09:31:38;1.40;;;1.00;;
10132;SDS011;5106;50.926;7.080;2022-10-16T09:34:04;2.97;;;1.17;;
10132;SDS011;5106;50.926;7.080;2022-10-16T09:36:35;2.13;;;0.80;;
10132;SDS011;5106;50.926;7.080;2022-10-16T09:39:08;1.00;;;0.70;;
10132;SDS011;5106;50.926;7.080;2022-10-16T09:41:37;2.35;;;0.80;;
10132;SDS011;5106;50.926;7.080;2022-10-16T09:44:41;4.80;;;1.17;;
10132;SDS011;5106;50.926;7.080;2022-10-16T09:47:04;1.63;;;0.80;;
10132;SDS011;5106;50.926;7.080;2022-10-16T09:49:31;5.10;;;1.00;;
10132;SDS011;5106;50.926;7.080;2022-10-16T09:52:03;1.42;;;0.80;;
10132;SDS011;5106;50.926;7.080;2022-10-16T09:54:31;1.40;;;0.80;;
10132;SDS011;5106;50.926;7.080;2022-10-16T09:57:06;0.98;;;0.80;;
10132;SDS011;5106;50.926;7.080;2022-10-16T09:59:32;2.25;;;1.02;;
10132;SDS011;5106;50.926;7.080;2022-10-16T10:02:01;1.38;;;0.80;;
10132;SDS011;5106;50.926;7.080;2022-10-16T10:04:41;3.55;;;0.90;;
10132;SDS011;5106;50.926;7.080;2022-10-16T10:07:26;2.60;;;0.93;;
10132;SDS011;5106;50.926;7.080;2022-10-16T10:09:58;1.90;;;0.90;;
10132;SDS011;5106;50.926;7.080;2022-10-16T10:12:24;1.40;;;0.80;;
10132;SDS011;5106;50.926;7.080;2022-10-16T10:14:53;2.00;;;0.90;;
10132;SDS011;5106;50.926;7.080;2022-10-16T10:17:29;1.92;;;0.82;;
10132;SDS011;5106;50.926;7.080;2022-10-16T10:19:56;1.25;;;0.75;;
10132;SDS011;5106;50.926;7.080;2022-10-16T10:22:40;3.15;;;0.93;;
10132;SDS011;5106;50.926;7.080;2022-10-16T10:27:45;1.75;;;0.73;;
10132;SDS011;5106;50.926;7.080;2022-10-16T10:33:28;1.90;;;0.80;;
10132;SDS011;5106;50.926;7.080;2022-10-16T10:36:34;2.25;;;0.82;;
10132;SDS011;5106;50.926;7.080;2022-10-16T10:39:17;1.05;;;0.68;;
10132;SDS011;5106;50.926;7.080;2022-10-16T10:50:25;2.72;;;0.70;;
10132;SDS011;5106;50.926;7.080;2022-10-16T10:56:00;2.03;;;0.73;;
10132;SDS011;5106;50.926;7.080;2022-10-16T10:58:49;1.92;;;0.60;;
10132;SDS011;5106;50.926;7.080;2022-10-16T11:01:50;0.93;;;0.60;;
10132;SDS011;5106;50.926;7.080;2022-10-16T11:07:19;0.90;;;0.60;;
10132;SDS011;5106;50.926;7.080;2022-10-16T11:10:02;1.88;;;0.98;;
10132;SDS011;5106;50.926;7.080;2022-10-16T11:12:39;2.15;;;0.50;;
10132;SDS011;5106;50.926;7.080;2022-10-16T11:15:29;2.08;;;0.60;;
10132;SDS011;5106;50.926;7.080;2022-10-16T11:20:29;0.70;;;0.57;;
10132;SDS011;5106;50.926;7.080;2022-10-16T11:25:40;4.30;;;0.88;;
10132;SDS011;5106;50.926;7.080;2022-10-16T11:28:12;0.77;;;0.50;;
10132;SDS011;5106;50.926;7.080;2022-10-16T11:31:07;2.10;;;0.75;;
10132;SDS011;5106;50.926;7.080;2022-10-16T11:33:41;0.73;;;0.50;;
10132;SDS011;5106;50.926;7.080;2022-10-16T11:36:13;1.90;;;0.82;;
10132;SDS011;5106;50.926;7.080;2022-10-16T11:41:32;1.23;;;0.70;;
10132;SDS011;5106;50.926;7.080;2022-10-16T11:44:14;0.82;;;0.70;;
10132;SDS011;5106;50.926;7.080;2022-10-16T11:46:43;0.82;;;0.55;;
10132;SDS011;5106;50.926;7.080;2022-10-16T11:49:16;2.38;;;0.73;;
10132;SDS011;5106;50.926;7.080;2022-10-16T11:51:56;0.80;;;0.50;;
10132;SDS011;5106;50.926;7.080;2022-10-16T11:57:35;1.23;;;0.57;;
10132;SDS011;5106;50.926;7.080;2022-10-16T12:00:20;1.38;;;0.50;;
10132;SDS011;5106;50.926;7.080;2022-10-16T12:08:17;0.73;;;0.52;;
10132;SDS011;5106;50.926;7.080;2022-10-16T12:10:44;1.08;;;0.45;;
10132;SDS011;5106;50.926;7.080;2022-10-16T12:18:38;0.85;;;0.60;;
10132;SDS011;5106;50.926;7.080;2022-10-16T12:21:07;0.95;;;0.60;;
10132;SDS011;5106;50.926;7.080;2022-10-16T12:23:38;2.45;;;0.98;;
10132;SDS011;5106;50.926;7.080;2022-10-16T12:26:13;1.85;;;0.50;;
10132;SDS011;5106;50.926;7.080;2022-10-16T12:28:48;2.05;;;0.70;;
10132;SDS011;5106;50.926;7.080;2022-10-16T12:31:16;1.95;;;0.82;;
10132;SDS011;5106;50.926;7.080;2022-10-16T12:34:43;1.48;;;0.60;;
10132;SDS011;5106;50.926;7.080;2022-10-16T12:36:46;1.42;;;0.80;;
10132;SDS011;5106;50.926;7.080;2022-10-16T12:39:20;1.08;;;0.55;;
10132;SDS011;5106;50.926;7.080;2022-10-16T12:42:03;1.88;;;0.77;;
10132;SDS011;5106;50.926;7.080;2022-10-16T12:44:34;1.15;;;0.50;;
10132;SDS011;5106;50.926;7.080;2022-10-16T12:47:00;1.27;;;0.68;;
10132;SDS011;5106;50.926;7.080;2022-10-16T12:49:32;2.33;;;0.68;;
10132;SDS011;5106;50.926;7.080;2022-10-16T12:52:03;2.40;;;0.70;;
10132;SDS011;5106;50.926;7.080;2022-10-16T12:54:30;1.75;;;0.60;;
10132;SDS011;5106;50.926;7.080;2022-10-16T12:57:13;2.13;;;0.88;;
10132;SDS011;5106;50.926;7.080;2022-10-16T13:03:21;3.42;;;0.70;;
10132;SDS011;5106;50.926;7.080;2022-10-16T13:11:24;2.88;;;1.30;;
10132;SDS011;5106;50.926;7.080;2022-10-16T13:13:56;1.10;;;0.90;;
10132;SDS011;5106;50.926;7.080;2022-10-16T13:19:16;2.28;;;0.80;;
10132;SDS011;5106;50.926;7.080;2022-10-16T13:22:05;1.55;;;0.88;;
10132;SDS011;5106;50.926;7.080;2022-10-16T13:30:19;0.55;;;0.47;;
10132;SDS011;5106;50.926;7.080;2022-10-16T13:32:53;2.25;;;0.73;;
10132;SDS011;5106;50.926;7.080;2022-10-16T13:35:37;1.00;;;0.63;;
10132;SDS011;5106;50.926;7.080;2022-10-16T13:38:26;1.48;;;0.70;;
10132;SDS011;5106;50.926;7.080;2022-10-16T13:40:59;1.25;;;0.70;;
10132;SDS011;5106;50.926;7.080;2022-10-16T13:43:27;2.15;;;0.65;;
10132;SDS011;5106;50.926;7.080;2022-10-16T13:46:00;1.27;;;0.52;;
10132;SDS011;5106;50.926;7.080;2022-10-16T13:48:33;1.40;;;0.63;;
10132;SDS011;5106;50.926;7.080;2022-10-16T13:53:36;2.60;;;0.70;;
10132;SDS011;5106;50.926;7.080;2022-10-16T13:56:06;0.95;;;0.60;;
10132;SDS011;5106;50.926;7.080;2022-10-16T13:58:35;4.40;;;0.75;;
10132;SDS011;5106;50.926;7.080;2022-10-16T14:01:02;1.17;;;0.60;;
10132;SDS011;5106;50.926;7.080;2022-10-16T14:03:30;1.30;;;0.70;;
10132;SDS011;5106;50.926;7.080;2022-10-16T14:05:58;1.75;;;0.70;;
10132;SDS011;5106;50.926;7.080;2022-10-16T14:08:27;1.98;;;0.55;;
10132;SDS011;5106;50.926;7.080;2022-10-16T14:10:55;0.77;;;0.65;;
10132;SDS011;5106;50.926;7.080;2022-10-16T14:16:22;1.08;;;0.65;;
10132;SDS011;5106;50.926;7.080;2022-10-16T14:18:55;0.73;;;0.50;;
10132;SDS011;5106;50.926;7.080;2022-10-16T14:21:30;0.63;;;0.55;;
10132;SDS011;5106;50.926;7.080;2022-10-16T14:23:57;3.08;;;0.60;;
10132;SDS011;5106;50.926;7.080;2022-10-16T14:26:24;1.02;;;0.57;;
10132;SDS011;5106;50.926;7.080;2022-10-16T14:29:03;4.30;;;0.77;;
10132;SDS011;5106;50.926;7.080;2022-10-16T14:31:42;1.67;;;0.68;;
10132;SDS011;5106;50.926;7.080;2022-10-16T14:34:26;1.48;;;0.70;;
10132;SDS011;5106;50.926;7.080;2022-10-16T14:37:13;2.17;;;0.80;;
10132;SDS011;5106;50.926;7.080;2022-10-16T14:39:53;1.20;;;0.65;;
10132;SDS011;5106;50.926;7.080;2022-10-16T14:42:20;0.93;;;0.55;;
10132;SDS011;5106;50.926;7.080;2022-10-16T14:44:52;1.83;;;0.73;;
10132;SDS011;5106;50.926;7.080;2022-10-16T14:47:20;0.80;;;0.57;;
10132;SDS011;5106;50.926;7.080;2022-10-16T14:49:50;1.63;;;0.70;;
10132;SDS011;5106;50.926;7.080;2022-10-16T14:52:16;1.02;;;0.52;;
10132;SDS011;5106;50.926;7.080;2022-10-16T14:54:42;2.05;;;0.70;;
10132;SDS011;5106;50.926;7.080;2022-10-16T14:57:18;1.20;;;0.60;;
10132;SDS011;5106;50.926;7.080;2022-10-16T14:59:45;0.77;;;0.75;;
10132;SDS011;5106;50.926;7.080;2022-10-16T15:02:17;1.70;;;0.77;;
10132;SDS011;5106;50.926;7.080;2022-10-16T15:04:43;4.30;;;0.75;;
10132;SDS011;5106;50.926;7.080;2022-10-16T15:07:09;2.05;;;0.90;;
10132;SDS011;5106;50.926;7.080;2022-10-16T15:09:34;0.90;;;0.68;;
10132;SDS011;5106;50.926;7.080;2022-10-16T15:12:00;0.68;;;0.65;;
10132;SDS011;5106;50.926;7.080;2022-10-16T15:14:26;2.00;;;0.90;;
10132;SDS011;5106;50.926;7.080;2022-10-16T15:16:51;1.98;;;0.65;;
10132;SDS011;5106;50.926;7.080;2022-10-16T15:19:17;0.88;;;0.60;;
10132;SDS011;5106;50.926;7.080;2022-10-16T15:21:42;1.83;;;0.80;;
10132;SDS011;5106;50.926;7.080;2022-10-16T15:24:09;0.80;;;0.70;;
10132;SDS011;5106;50.926;7.080;2022-10-16T15:26:37;1.60;;;0.90;;
10132;SDS011;5106;50.926;7.080;2022-10-16T15:29:03;1.52;;;0.80;;
10132;SDS011;5106;50.926;7.080;2022-10-16T15:31:29;0.70;;;0.70;;
10132;SDS011;5106;50.926;7.080;2022-10-16T15:33:55;0.85;;;0.80;;
10132;SDS011;5106;50.926;7.080;2022-10-16T15:36:27;1.52;;;0.90;;
10132;SDS011;5106;50.926;7.080;2022-10-16T15:38:54;0.95;;;0.80;;
10132;SDS011;5106;50.926;7.080;2022-10-16T15:41:21;1.10;;;0.85;;
10132;SDS011;5106;50.926;7.080;2022-10-16T15:43:47;1.75;;;0.88;;
10132;SDS011;5106;50.926;7.080;2022-10-16T15:46:14;2.97;;;0.77;;
10132;SDS011;5106;50.926;7.080;2022-10-16T15:48:41;1.63;;;0.70;;
10132;SDS011;5106;50.926;7.080;2022-10-16T15:51:08;1.27;;;1.00;;
10132;SDS011;5106;50.926;7.080;2022-10-16T15:53:34;2.25;;;0.88;;
10132;SDS011;5106;50.926;7.080;2022-10-16T15:56:01;2.17;;;0.90;;
10132;SDS011;5106;50.926;7.080;2022-10-16T15:58:28;1.58;;;1.10;;
10132;SDS011;5106;50.926;7.080;2022-10-16T16:00:55;1.80;;;1.05;;
10132;SDS011;5106;50.926;7.080;2022-10-16T16:03:22;2.55;;;1.20;;
10132;SDS011;5106;50.926;7.080;2022-10-16T16:05:49;1.00;;;0.88;;
10132;SDS011;5106;50.926;7.080;2022-10-16T16:08:14;1.45;;;1.10;;
10132;SDS011;5106;50.926;7.080;2022-10-16T16:10:41;1.83;;;0.90;;
10132;SDS011;5106;50.926;7.080;2022-10-16T16:13:07;2.63;;;1.20;;
10132;SDS011;5106;50.926;7.080;2022-10-16T16:15:32;4.03;;;1.00;;
10132;SDS011;5106;50.926;7.080;2022-10-16T16:17:58;3.42;;;1.08;;
10132;SDS011;5106;50.926;7.080;2022-10-16T16:20:26;2.78;;;1.17;;
10132;SDS011;5106;50.926;7.080;2022-10-16T16:22:52;1.83;;;0.98;;
10132;SDS011;5106;50.926;7.080;2022-10-16T16:25:17;3.38;;;0.88;;
10132;SDS011;5106;50.926;7.080;2022-10-16T16:27:43;3.17;;;1.15;;
10132;SDS011;5106;50.926;7.080;2022-10-16T16:30:10;2.08;;;0.90;;
10132;SDS011;5106;50.926;7.080;2022-10-16T16:32:36;1.73;;;0.98;;
10132;SDS011;5106;50.926;7.080;2022-10-16T16:35:02;2.42;;;1.00;;
10132;SDS011;5106;50.926;7.080;2022-10-16T16:37:29;1.45;;;0.90;;
10132;SDS011;5106;50.926;7.080;2022-10-16T16:39:55;2.67;;;1.00;;
10132;SDS011;5106;50.926;7.080;2022-10-16T16:42:23;1.38;;;1.10;;
10132;SDS011;5106;50.926;7.080;2022-10-16T16:44:50;2.78;;;1.00;;
10132;SDS011;5106;50.926;7.080;2022-10-16T16:47:16;2.72;;;1.10;;
10132;SDS011;5106;50.926;7.080;2022-10-16T16:49:42;4.90;;;1.52;;